Time;durP1;ratioP1;P1;durP2;ratioP2;P2;SDS_P1;SDS_P2;PMS_P1;PMS_P2;Temp;Humidity;BMP_temperature;BMP_pressure;BME280_temperature;BME280_humidity;BME280_pressure;Samples;Min_cycle;Max_cycle;Signal;HPM_P1;HPM_P2
2022/02/04 08:17:26;;;;;;;3.50;1.60;;;;;;;;;;12572703;23;20343;-81
2022/02/04 08:27:53;;;;;;;;;;;;;;;;;;12601546;23;20014;-81
2022/02/04 09:04:43;;;;;;;2.30;1.85;;;;;;;;;;12548712;23;20011;-83
2022/02/04 09:09:58;;;;;;;3.40;1.75;;;;;;;;;;12543334;23;20334;-83
2022/02/04 09:25:55;;;;;;;3.00;2.00;;;;;;;;;;12571903;23;20511;-83
2022/02/04 09:30:56;;;;;;;2.50;1.67;;;;;;;;;;12543386;23;20234;-85
2022/02/04 09:35:57;;;;;;;2.65;1.80;;;;;;;;;;12546838;23;20070;-83
2022/02/04 09:40:58;;;;;;;;;;;;;;;;;;12548121;23;20014;-82
2022/02/04 09:46:02;;;;;;;3.33;2.70;;;;;;;;;;12550142;23;19902;-82
2022/02/04 09:51:03;;;;;;;4.95;3.10;;;;;;;;;;12547898;23;20010;-81
2022/02/04 10:17:15;;;;;;;3.38;2.15;;;;;;;;;;12574601;23;20034;-83
2022/02/04 10:22:19;;;;;;;3.50;2.80;;;;;;;;;;12549313;23;20043;-83
2022/02/04 10:27:20;;;;;;;4.30;2.58;;;;;;;;;;12547326;23;20063;-83
2022/02/04 10:32:30;;;;;;;2.90;2.10;;;;;;;;;;12547375;23;20037;-83
2022/02/04 10:37:34;;;;;;;4.28;2.65;;;;;;;;;;12546331;23;20093;-83
2022/02/04 10:53:27;;;;;;;2.80;2.13;;;;;;;;;;12572989;23;20066;-83
2022/02/04 10:58:43;;;;;;;3.10;2.20;;;;;;;;;;12572893;23;20011;-83
2022/02/04 11:03:54;;;;;;;4.70;2.45;;;;;;;;;;12546921;23;20006;-82
2022/02/04 11:09:08;;;;;;;2.70;1.98;;;;;;;;;;12546222;23;20011;-82
2022/02/04 11:36:26;;;;;;;2.80;1.50;;;;;;;;;;12506621;23;20014;-82
2022/02/04 11:52:28;;;;;;;2.60;1.95;;;;;;;;;;12574844;23;20010;-82
2022/02/04 11:57:37;;;;;;;2.05;1.20;;;;;;;;;;12555831;23;20007;-81
2022/02/04 12:02:39;;;;;;;3.80;1.95;;;;;;;;;;12550228;23;20003;-82
2022/02/04 12:08:11;;;;;;;2.13;1.65;;;;;;;;;;12554951;23;20014;-80
2022/02/04 12:13:12;;;;;;;2.35;1.65;;;;;;;;;;12561832;23;20059;-82
2022/02/04 12:18:16;;;;;;;2.38;1.35;;;;;;;;;;12564375;23;19999;-82
2022/02/04 12:23:27;;;;;;;2.22;1.40;;;;;;;;;;12579967;23;20030;-81
2022/02/04 12:28:50;;;;;;;1.25;1.02;;;;;;;;;;12548936;23;20017;-82
2022/02/04 12:34:14;;;;;;;1.92;1.25;;;;;;;;;;12606685;23;20022;-83
2022/02/04 12:39:22;;;;;;;2.33;0.75;;;;;;;;;;12672457;23;20002;-83
2022/02/04 12:44:28;;;;;;;1.35;1.05;;;;;;;;;;12672804;23;20010;-82
2022/02/04 12:49:34;;;;;;;2.80;1.33;;;;;;;;;;12670614;23;20132;-82
2022/02/04 12:54:40;;;;;;;1.77;1.38;;;;;;;;;;12694853;23;20089;-82
2022/02/04 12:59:54;;;;;;;1.77;0.98;;;;;;;;;;12668434;23;20002;-82
2022/02/04 13:10:25;;;;;;;2.60;1.30;;;;;;;;;;12698636;23;20058;-83
2022/02/04 13:15:46;;;;;;;2.88;1.50;;;;;;;;;;12673030;23;20099;-86
2022/02/04 13:20:48;;;;;;;2.40;1.45;;;;;;;;;;12673422;23;20006;-83
2022/02/04 13:25:51;;;;;;;1.58;1.20;;;;;;;;;;12683245;23;19990;-83
2022/02/04 13:31:01;;;;;;;2.05;1.40;;;;;;;;;;12707856;23;20100;-83
2022/02/04 13:41:28;;;;;;;4.70;2.00;;;;;;;;;;12724249;23;20021;-86
2022/02/04 13:46:39;;;;;;;2.35;1.80;;;;;;;;;;12697080;23;20391;-84
2022/02/04 13:57:27;;;;;;;3.85;2.20;;;;;;;;;;12714222;23;20378;-83
2022/02/04 14:02:37;;;;;;;4.88;2.88;;;;;;;;;;12664504;23;20002;-84
2022/02/04 14:07:42;;;;;;;3.30;2.70;;;;;;;;;;12667431;23;20339;-83
2022/02/04 14:12:43;;;;;;;5.20;3.72;;;;;;;;;;12668899;23;20016;-83
2022/02/04 14:17:44;;;;;;;;;;;;;;;;;;12696507;23;20009;-83
2022/02/04 14:22:45;;;;;;;5.20;3.17;;;;;;;;;;12667642;23;19951;-84
2022/02/04 14:27:49;;;;;;;3.67;2.83;;;;;;;;;;12668977;23;20013;-84
2022/02/04 14:34:17;;;;;;;3.25;2.10;;;;;;;;;;12667091;23;20018;-84
2022/02/04 14:49:39;;;;;;;3.28;2.08;;;;;;;;;;12692577;23;20014;-84
2022/02/04 15:04:53;;;;;;;3.10;2.03;;;;;;;;;;12698132;23;20097;-83
2022/02/04 15:09:56;;;;;;;2.95;1.52;;;;;;;;;;12718931;23;20061;-82
2022/02/04 15:14:57;;;;;;;2.30;1.27;;;;;;;;;;12672795;23;20014;-85
2022/02/04 15:19:58;;;;;;;3.03;1.60;;;;;;;;;;12695949;23;20069;-84
2022/02/04 15:25:08;;;;;;;5.70;2.45;;;;;;;;;;12672685;23;20070;-86
2022/02/04 15:30:10;;;;;;;1.92;1.40;;;;;;;;;;12675205;23;20006;-84
2022/02/04 15:35:11;;;;;;;2.25;1.40;;;;;;;;;;12677176;23;20098;-82
2022/02/04 15:40:12;;;;;;;;;;;;;;;;;;12676470;23;20038;-83
2022/02/04 15:45:39;;;;;;;4.53;1.38;;;;;;;;;;12673120;23;19900;-86
2022/02/04 15:50:57;;;;;;;2.03;1.45;;;;;;;;;;12706945;23;20014;-85
2022/02/04 16:06:37;;;;;;;3.13;1.92;;;;;;;;;;12732263;23;20029;-85
2022/02/04 16:17:08;;;;;;;2.67;1.35;;;;;;;;;;12716665;23;20453;-84
2022/02/04 16:32:36;;;;;;;2.65;1.55;;;;;;;;;;12708135;23;20041;-85
2022/02/04 16:37:38;;;;;;;2.95;1.42;;;;;;;;;;12668723;23;20002;-83
2022/02/04 16:42:39;;;;;;;3.78;0.90;;;;;;;;;;12690259;23;20002;-84
2022/02/04 16:47:40;;;;;;;3.00;1.52;;;;;;;;;;12696510;23;20141;-84
2022/02/04 16:52:41;;;;;;;2.50;0.73;;;;;;;;;;12696382;23;20006;-83
2022/02/04 16:57:42;;;;;;;3.58;1.10;;;;;;;;;;12696296;23;20010;-84
2022/02/04 17:02:43;;;;;;;1.63;1.05;;;;;;;;;;12692287;23;20002;-85
2022/02/04 17:07:52;;;;;;;1.50;0.77;;;;;;;;;;12688998;23;19990;-82
2022/02/04 17:12:59;;;;;;;0.45;0.40;;;;;;;;;;12699978;23;20065;-85
2022/02/04 17:18:01;;;;;;;1.05;0.60;;;;;;;;;;12676888;23;20009;-83
2022/02/04 17:23:02;;;;;;;1.48;0.77;;;;;;;;;;12671624;23;20002;-84
2022/02/04 17:28:03;;;;;;;2.47;0.70;;;;;;;;;;12667939;23;20006;-83
2022/02/04 17:33:05;;;;;;;;;;;;;;;;;;12665214;23;20021;-83
2022/02/04 17:38:06;;;;;;;0.88;0.57;;;;;;;;;;12672601;23;19984;-83
2022/02/04 17:43:07;;;;;;;;;;;;;;;;;;12664746;23;20006;-85
2022/02/04 17:48:18;;;;;;;1.35;0.82;;;;;;;;;;12658277;23;19984;-85
2022/02/04 17:53:24;;;;;;;;;;;;;;;;;;12666694;23;20042;-85
2022/02/04 17:58:30;;;;;;;1.02;0.93;;;;;;;;;;12695014;23;19905;-85
2022/02/04 18:08:47;;;;;;;1.30;1.08;;;;;;;;;;12713475;23;20497;-85
2022/02/04 18:19:27;;;;;;;0.80;0.65;;;;;;;;;;12689796;23;20039;-86
2022/02/04 18:24:28;;;;;;;1.80;1.55;;;;;;;;;;12659047;23;20006;-86
2022/02/04 18:29:41;;;;;;;;;;;;;;;;;;12686238;23;20002;-84
